createdAt,value
2022-07-26T00:01:48.847Z,100472.13
2022-07-26T00:04:16.605Z,100471.03
2022-07-26T00:06:44.341Z,100473.75
2022-07-26T00:09:11.960Z,100477.50
2022-07-26T00:11:39.624Z,100485.66
2022-07-26T00:14:09.377Z,100487.56
2022-07-26T00:16:37.868Z,100484.84
2022-07-26T00:19:08.072Z,100484.56
2022-07-26T00:21:37.423Z,100489.16
2022-07-26T00:24:08.852Z,100492.16
2022-07-26T00:26:36.552Z,100475.41
2022-07-26T00:29:05.254Z,100494.34
2022-07-26T00:31:33.068Z,100501.69
2022-07-26T00:34:00.742Z,100502.22
2022-07-26T00:36:29.168Z,100499.78
2022-07-26T00:38:56.725Z,100505.22
2022-07-26T00:41:24.278Z,100504.69
2022-07-26T00:44:00.206Z,100496.00
2022-07-26T00:46:28.077Z,100501.69
2022-07-26T00:48:55.842Z,100497.72
2022-07-26T00:51:23.910Z,100503.09
2022-07-26T00:53:51.463Z,100510.72
2022-07-26T00:56:22.549Z,100507.47
2022-07-26T00:58:50.262Z,100515.03
2022-07-26T01:01:17.874Z,100516.66
2022-07-26T01:03:45.676Z,100514.78
2022-07-26T01:06:16.146Z,100510.72
2022-07-26T01:08:44.069Z,100512.34
2022-07-26T01:11:11.668Z,100518.56
2022-07-26T01:13:49.622Z,100518.31
2022-07-26T01:16:18.126Z,100523.22
2022-07-26T01:18:45.711Z,100531.06
2022-07-26T01:21:14.327Z,100531.34
2022-07-26T01:23:44.038Z,100537.94
2022-07-26T01:26:12.049Z,100514.09
2022-07-26T01:28:41.191Z,100537.38
2022-07-26T01:31:09.230Z,100531.69
2022-07-26T01:33:37.015Z,100546.53
2022-07-26T01:36:04.700Z,100549.53
2022-07-26T01:38:32.210Z,100542.47
2022-07-26T01:40:59.805Z,100541.66
2022-07-26T01:43:27.973Z,100541.66
2022-07-26T01:45:55.601Z,100536.22
2022-07-26T01:48:23.431Z,100535.22
2022-07-26T01:50:51.032Z,100529.28
2022-07-26T01:53:18.787Z,100552.25
2022-07-26T01:55:46.356Z,100541.75
2022-07-26T01:58:13.953Z,100549.06
2022-07-26T02:00:41.662Z,100543.91
2022-07-26T02:03:09.555Z,100544.72
2022-07-26T02:05:37.196Z,100550.41
2022-07-26T02:08:05.142Z,100545.72
2022-07-26T02:10:51.034Z,100551.38
2022-07-26T02:13:19.169Z,100547.28
2022-07-26T02:15:46.818Z,100550.72
2022-07-26T02:18:14.431Z,100565.88
2022-07-26T02:20:41.980Z,100555.47
2022-07-26T02:23:09.527Z,100559.72
2022-07-26T02:25:37.157Z,100560.22
2022-07-26T02:28:04.844Z,100552.25
2022-07-26T02:30:32.486Z,100559.75
2022-07-26T02:33:01.311Z,100568.16
2022-07-26T02:35:28.946Z,100565.41
2022-07-26T02:37:56.470Z,100567.47
2022-07-26T02:40:23.989Z,100572.88
2022-07-26T02:42:51.634Z,100568.53
2022-07-26T02:45:19.280Z,100567.94
2022-07-26T02:47:51.021Z,100557.88
2022-07-26T02:50:19.833Z,100566.72
2022-07-26T02:52:48.596Z,100564.78
2022-07-26T02:55:17.331Z,100570.72
2022-07-26T02:57:46.881Z,100576.31
2022-07-26T03:00:17.503Z,100560.97
2022-07-26T03:02:45.295Z,100572.88
2022-07-26T03:05:12.973Z,100577.44
2022-07-26T03:07:40.671Z,100570.31
2022-07-26T03:10:09.115Z,100569.00
2022-07-26T03:12:38.307Z,100579.53
2022-07-26T03:15:07.038Z,100581.44
2022-07-26T03:17:34.621Z,100594.16
2022-07-26T03:20:02.875Z,100592.78
2022-07-26T03:22:31.284Z,100597.25
2022-07-26T03:24:59.130Z,100592.19
2022-07-26T03:27:26.623Z,100574.16
2022-07-26T03:29:54.157Z,100591.72
2022-07-26T03:32:21.735Z,100601.22
2022-07-26T03:34:49.259Z,100596.72
2022-07-26T03:37:18.112Z,100601.13
2022-07-26T03:39:45.755Z,100599.63
2022-07-26T03:42:13.338Z,100605.28
2022-07-26T03:44:41.127Z,100608.84
2022-07-26T03:47:08.815Z,100610.03
2022-07-26T03:49:36.426Z,100602.75
2022-07-26T03:52:04.396Z,100611.47
2022-07-26T03:54:32.035Z,100606.22
2022-07-26T03:56:59.512Z,100605.47
2022-07-26T03:59:27.666Z,100597.31
2022-07-26T04:01:58.150Z,100609.69
2022-07-26T04:04:26.585Z,100606.44
2022-07-26T04:06:55.262Z,100611.22
2022-07-26T04:09:24.298Z,100605.19
2022-07-26T04:11:51.826Z,100613.44
2022-07-26T04:14:19.360Z,100607.91
2022-07-26T04:16:47.014Z,100612.81
2022-07-26T04:19:14.608Z,100612.16
2022-07-26T04:21:42.114Z,100619.66
2022-07-26T04:24:10.662Z,100619.28
2022-07-26T04:26:38.502Z,100620.88
2022-07-26T04:29:06.020Z,100627.47
2022-07-26T04:31:36.383Z,100629.34
2022-07-26T04:34:04.243Z,100626.56
2022-07-26T04:36:31.998Z,100627.75
2022-07-26T04:38:59.440Z,100628.56
2022-07-26T04:41:27.022Z,100624.66
2022-07-26T04:43:54.517Z,100618.88
2022-07-26T04:46:22.129Z,100618.66
2022-07-26T04:48:49.673Z,100622.97
2022-07-26T04:51:17.257Z,100615.97
2022-07-26T04:53:44.757Z,100625.19
2022-07-26T04:56:12.454Z,100621.59
2022-07-26T04:58:40.116Z,100624.34
2022-07-26T05:01:10.455Z,100620.13
2022-07-26T05:03:39.407Z,100620.19
2022-07-26T05:06:07.240Z,100621.97
2022-07-26T05:08:34.810Z,100610.78
2022-07-26T05:11:02.475Z,100596.63
2022-07-26T05:13:31.055Z,100609.72
2022-07-26T05:16:00.150Z,100604.72
2022-07-26T05:18:31.486Z,100599.91
2022-07-26T05:20:59.720Z,100600.44
2022-07-26T05:23:27.985Z,100583.16
2022-07-26T05:25:56.652Z,100609.19
2022-07-26T05:28:24.174Z,100598.47
2022-07-26T05:30:52.033Z,100597.41
2022-07-26T05:33:19.859Z,100599.63
2022-07-26T05:35:47.462Z,100590.59
2022-07-26T05:38:15.046Z,100601.53
2022-07-26T05:40:47.212Z,100591.66
2022-07-26T05:43:18.563Z,100600.78
2022-07-26T05:45:46.251Z,100602.69
2022-07-26T05:48:14.253Z,100602.47
2022-07-26T05:50:44.217Z,100601.84
2022-07-26T05:53:11.753Z,100602.91
2022-07-26T05:55:39.281Z,100599.06
2022-07-26T05:58:06.912Z,100587.16
2022-07-26T06:00:34.666Z,100601.44
2022-07-26T06:03:22.274Z,100577.16
2022-07-26T06:05:54.827Z,100594.19
2022-07-26T06:08:23.020Z,100594.25
2022-07-26T06:10:51.298Z,100593.81
2022-07-26T06:13:19.162Z,100590.69
2022-07-26T06:15:47.393Z,100580.31
2022-07-26T06:18:15.045Z,100585.59
2022-07-26T06:20:45.031Z,100579.19
2022-07-26T06:23:13.450Z,100576.28
2022-07-26T06:25:41.244Z,100585.31
2022-07-26T06:28:10.659Z,100575.06
2022-07-26T06:30:39.515Z,100569.53
2022-07-26T06:33:08.089Z,100581.06
2022-07-26T06:35:37.437Z,100588.69
2022-07-26T06:38:07.237Z,100571.91
2022-07-26T06:40:35.539Z,100582.34
2022-07-26T06:43:04.653Z,100576.81
2022-07-26T06:45:33.414Z,100579.94
2022-07-26T06:48:00.989Z,100578.25
2022-07-26T06:50:28.699Z,100584.59
2022-07-26T06:52:56.418Z,100570.63
2022-07-26T06:55:24.928Z,100574.16
2022-07-26T06:57:52.467Z,100582.88
2022-07-26T07:00:20.280Z,100573.13
2022-07-26T07:02:47.938Z,100574.00
2022-07-26T07:05:15.570Z,100577.19
2022-07-26T07:07:43.870Z,100578.19
2022-07-26T07:10:12.735Z,100580.56
2022-07-26T07:12:40.893Z,100586.47
2022-07-26T07:15:08.834Z,100589.66
2022-07-26T07:17:36.495Z,100581.97
2022-07-26T07:20:05.655Z,100581.38
2022-07-26T07:22:33.310Z,100582.06
2022-07-26T07:25:01.173Z,100583.50
2022-07-26T07:27:31.072Z,100579.66
2022-07-26T07:29:58.616Z,100578.13
2022-07-26T07:32:26.311Z,100581.28
2022-07-26T07:34:53.995Z,100579.84
2022-07-26T07:37:21.720Z,100576.03
2022-07-26T07:39:51.029Z,100572.75
2022-07-26T07:42:19.782Z,100579.69
2022-07-26T07:44:47.809Z,100561.34
2022-07-26T07:47:15.659Z,100572.56
2022-07-26T07:49:43.838Z,100560.53
2022-07-26T07:52:11.497Z,100571.03
2022-07-26T07:54:39.634Z,100581.38
2022-07-26T07:57:07.778Z,100572.97
2022-07-26T07:59:39.030Z,100565.84
2022-07-26T08:02:07.638Z,100564.75
2022-07-26T08:04:35.614Z,100570.28
2022-07-26T08:07:04.703Z,100568.66
2022-07-26T08:09:33.737Z,100569.44
2022-07-26T08:12:02.185Z,100568.22
2022-07-26T08:14:29.974Z,100569.38
2022-07-26T08:16:57.975Z,100562.47
2022-07-26T08:19:27.574Z,100566.19
2022-07-26T08:22:09.435Z,100555.59
2022-07-26T08:24:37.334Z,100552.41
2022-07-26T08:27:05.282Z,100551.56
2022-07-26T08:29:32.881Z,100547.31
2022-07-26T08:32:00.813Z,100551.56
2022-07-26T08:34:28.539Z,100551.38
2022-07-26T08:37:16.034Z,100552.41
2022-07-26T08:39:44.229Z,100555.78
2022-07-26T08:42:16.444Z,100561.91
2022-07-26T08:44:48.069Z,100553.91
2022-07-26T08:47:18.196Z,100554.63
2022-07-26T08:50:06.072Z,100562.09
2022-07-26T08:52:33.644Z,100549.56
2022-07-26T08:55:01.150Z,100552.53
2022-07-26T08:57:30.339Z,100554.53
2022-07-26T09:00:20.961Z,100557.19
2022-07-26T09:02:49.506Z,100550.38
2022-07-26T09:05:27.676Z,100547.91
2022-07-26T09:07:56.210Z,100542.22
2022-07-26T09:10:24.533Z,100542.91
2022-07-26T09:12:57.297Z,100547.03
2022-07-26T09:15:28.846Z,100538.69
2022-07-26T09:17:58.354Z,100542.97
2022-07-26T09:20:31.392Z,100548.41
2022-07-26T09:23:04.596Z,100540.19
2022-07-26T09:25:37.518Z,100542.09
2022-07-26T09:28:21.278Z,100544.50
2022-07-26T09:30:54.237Z,100540.59
2022-07-26T09:33:22.005Z,100544.00
2022-07-26T09:36:07.298Z,100534.13
2022-07-26T09:38:41.936Z,100536.03
2022-07-26T09:41:28.779Z,100531.31
2022-07-26T09:44:00.393Z,100537.97
2022-07-26T09:46:33.266Z,100528.31
2022-07-26T09:49:20.883Z,100529.44
2022-07-26T09:51:50.686Z,100523.44
2022-07-26T09:54:37.253Z,100527.09
2022-07-26T09:57:04.887Z,100521.88
2022-07-26T09:59:33.648Z,100520.81
2022-07-26T10:02:01.595Z,100526.09
2022-07-26T10:04:29.289Z,100525.13
2022-07-26T10:07:00.669Z,100527.00
2022-07-26T10:09:35.078Z,100519.44
2022-07-26T10:12:07.440Z,100517.44
2022-07-26T10:14:35.373Z,100514.28
2022-07-26T10:17:31.307Z,100508.38
2022-07-26T10:20:17.043Z,100500.38
2022-07-26T10:22:46.778Z,100508.28
2022-07-26T10:25:17.556Z,100498.66
2022-07-26T10:27:47.128Z,100509.19
2022-07-26T10:30:20.639Z,100497.16
2022-07-26T10:33:00.296Z,100495.34
2022-07-26T10:35:34.707Z,100489.84
2022-07-26T10:38:10.739Z,100486.75
2022-07-26T10:40:55.529Z,100481.16
2022-07-26T10:43:40.042Z,100480.69
2022-07-26T10:46:20.756Z,100481.91
2022-07-26T10:49:09.302Z,100485.56
2022-07-26T10:51:39.610Z,100496.75
2022-07-26T10:54:13.491Z,100492.00
2022-07-26T10:56:41.684Z,100495.16
2022-07-26T10:59:09.272Z,100493.16
2022-07-26T11:01:42.812Z,100486.63
2022-07-26T11:04:20.565Z,100479.81
2022-07-26T11:06:49.346Z,100485.63
2022-07-26T11:09:19.173Z,100476.50
2022-07-26T11:11:49.129Z,100489.63
2022-07-26T11:14:18.392Z,100474.06
2022-07-26T11:16:48.707Z,100480.41
2022-07-26T11:19:25.487Z,100485.97
2022-07-26T11:21:59.292Z,100482.81
2022-07-26T11:24:27.859Z,100472.63
2022-07-26T11:26:55.816Z,100474.75
2022-07-26T11:29:38.546Z,100469.66
2022-07-26T11:32:25.558Z,100470.75
2022-07-26T11:35:01.191Z,100470.88
2022-07-26T11:37:31.298Z,100463.34
2022-07-26T11:39:59.031Z,100467.78
2022-07-26T11:42:26.595Z,100466.19
2022-07-26T11:44:54.345Z,100469.34
2022-07-26T11:47:26.407Z,100461.69
2022-07-26T11:50:14.242Z,100468.03
2022-07-26T11:52:42.806Z,100466.88
2022-07-26T11:55:11.283Z,100467.31
2022-07-26T11:57:40.074Z,100471.66
2022-07-26T12:00:08.426Z,100450.50
2022-07-26T12:02:41.812Z,100456.28
2022-07-26T12:05:16.560Z,100462.63
2022-07-26T12:07:56.279Z,100464.22
2022-07-26T12:10:24.452Z,100451.56
2022-07-26T12:13:10.561Z,100452.88
2022-07-26T12:15:53.032Z,100456.91
2022-07-26T12:18:31.721Z,100456.38
2022-07-26T12:21:08.679Z,100457.31
2022-07-26T12:23:46.634Z,100453.47
2022-07-26T12:26:29.270Z,100452.13
2022-07-26T12:28:58.021Z,100436.31
2022-07-26T12:31:31.359Z,100446.38
2022-07-26T12:33:59.762Z,100443.31
2022-07-26T12:36:29.775Z,100447.69
2022-07-26T12:39:01.465Z,100435.91
2022-07-26T12:41:38.704Z,100439.66
2022-07-26T12:44:09.443Z,100430.88
2022-07-26T12:46:37.489Z,100431.03
2022-07-26T12:49:05.901Z,100429.00
2022-07-26T12:51:34.331Z,100422.63
2022-07-26T12:54:02.235Z,100428.22
2022-07-26T12:56:29.940Z,100430.22
2022-07-26T12:59:01.731Z,100430.22
2022-07-26T13:01:31.819Z,100430.19
2022-07-26T13:04:01.068Z,100442.72
2022-07-26T13:06:28.952Z,100436.72
2022-07-26T13:08:56.839Z,100435.91
2022-07-26T13:11:25.372Z,100447.44
2022-07-26T13:13:53.223Z,100455.50
2022-07-26T13:16:20.796Z,100452.53
2022-07-26T13:18:48.402Z,100455.25
2022-07-26T13:21:16.160Z,100452.75
2022-07-26T13:23:43.847Z,100456.50
2022-07-26T13:26:11.665Z,100461.19
2022-07-26T13:28:41.238Z,100465.50
2022-07-26T13:31:10.110Z,100453.63
2022-07-26T13:33:39.598Z,100452.56
2022-07-26T13:36:07.446Z,100438.53
2022-07-26T13:38:35.641Z,100451.06
2022-07-26T13:41:03.978Z,100461.28
2022-07-26T13:43:31.824Z,100463.81
2022-07-26T13:45:59.533Z,100466.16
2022-07-26T13:48:27.503Z,100465.41
2022-07-26T13:50:55.865Z,100469.50
2022-07-26T13:53:24.339Z,100473.88
2022-07-26T13:55:52.441Z,100468.31
2022-07-26T13:58:21.946Z,100469.38
2022-07-26T14:00:51.318Z,100472.97
2022-07-26T14:03:19.167Z,100474.34
2022-07-26T14:05:46.845Z,100465.31
2022-07-26T14:08:14.513Z,100467.78
2022-07-26T14:10:42.418Z,100463.75
2022-07-26T14:13:10.249Z,100451.81
2022-07-26T14:15:37.930Z,100463.75
2022-07-26T14:18:05.842Z,100465.63
2022-07-26T14:20:33.451Z,100462.50
2022-07-26T14:23:01.121Z,100464.53
2022-07-26T14:25:29.169Z,100464.78
2022-07-26T14:28:00.265Z,100471.94
2022-07-26T14:30:27.888Z,100470.13
2022-07-26T14:32:55.496Z,100476.09
2022-07-26T14:35:23.184Z,100473.03
2022-07-26T14:37:50.916Z,100473.47
2022-07-26T14:40:18.729Z,100480.31
2022-07-26T14:42:46.812Z,100470.13
2022-07-26T14:45:15.283Z,100476.72
2022-07-26T14:47:43.418Z,100466.84
2022-07-26T14:50:12.756Z,100461.00
2022-07-26T14:52:43.302Z,100466.34
2022-07-26T14:55:11.607Z,100478.59
2022-07-26T14:57:40.438Z,100472.03
2022-07-26T15:00:11.254Z,100474.06
2022-07-26T15:02:43.801Z,100479.31
2022-07-26T15:05:13.203Z,100474.31
2022-07-26T15:07:42.254Z,100480.47
2022-07-26T15:10:11.899Z,100490.88
2022-07-26T15:12:40.055Z,100496.84
2022-07-26T15:15:08.957Z,100494.41
2022-07-26T15:17:36.995Z,100493.97
2022-07-26T15:20:05.560Z,100499.97
2022-07-26T15:22:33.270Z,100497.19
2022-07-26T15:25:00.884Z,100509.69
2022-07-26T15:27:31.506Z,100509.84
2022-07-26T15:30:04.313Z,100505.84
2022-07-26T15:32:35.299Z,100497.06
2022-07-26T15:35:03.400Z,100508.09
2022-07-26T15:37:30.969Z,100508.31
2022-07-26T15:39:58.831Z,100498.22
2022-07-26T15:42:26.636Z,100517.03
2022-07-26T15:44:55.780Z,100516.03
2022-07-26T15:47:53.188Z,100507.09
2022-07-26T15:50:14.424Z,100510.44
2022-07-26T15:52:45.310Z,100508.16
2022-07-26T15:55:14.389Z,100516.63
2022-07-26T15:57:42.172Z,100505.75
2022-07-26T16:00:12.152Z,100514.56
2022-07-26T16:02:41.582Z,100510.00
2022-07-26T16:05:10.605Z,100506.53
2022-07-26T16:07:41.766Z,100516.41
2022-07-26T16:10:12.569Z,100513.84
2022-07-26T16:12:41.988Z,100511.00
2022-07-26T16:15:11.115Z,100518.00
2022-07-26T16:17:39.182Z,100514.78
2022-07-26T16:20:07.844Z,100514.97
2022-07-26T16:22:36.117Z,100513.94
2022-07-26T16:25:06.161Z,100518.06
2022-07-26T16:27:33.720Z,100522.88
2022-07-26T16:30:01.305Z,100520.97
2022-07-26T16:32:31.376Z,100515.09
2022-07-26T16:34:59.030Z,100512.34
2022-07-26T16:37:26.575Z,100512.72
2022-07-26T16:39:55.886Z,100503.06
2022-07-26T16:42:23.832Z,100519.03
2022-07-26T16:44:51.602Z,100523.31
2022-07-26T16:47:19.156Z,100519.72
2022-07-26T16:49:46.839Z,100526.41
2022-07-26T16:52:14.644Z,100536.41
2022-07-26T16:54:43.022Z,100538.09
2022-07-26T16:57:11.179Z,100538.81
2022-07-26T16:59:38.834Z,100534.16
2022-07-26T17:02:06.651Z,100528.34
2022-07-26T17:04:41.442Z,100531.94
2022-07-26T17:07:24.544Z,100536.69
2022-07-26T17:09:55.686Z,100545.06
2022-07-26T17:12:23.943Z,100540.91
2022-07-26T17:14:52.832Z,100544.81
2022-07-26T17:17:20.537Z,100554.97
2022-07-26T17:19:48.191Z,100560.63
2022-07-26T17:22:17.012Z,100562.41
2022-07-26T17:24:44.648Z,100565.81
2022-07-26T17:27:12.351Z,100570.31
2022-07-26T17:29:40.118Z,100576.44
2022-07-26T17:32:09.043Z,100560.97
2022-07-26T17:34:37.503Z,100562.09
2022-07-26T17:37:07.057Z,100568.53
2022-07-26T17:39:51.908Z,100578.69
2022-07-26T17:42:20.873Z,100579.50
2022-07-26T17:44:48.815Z,100586.44
2022-07-26T17:47:28.471Z,100583.88
2022-07-26T17:50:37.691Z,100582.59
2022-07-26T17:52:51.286Z,100587.38
2022-07-26T17:55:19.867Z,100594.91
2022-07-26T17:57:50.175Z,100592.47
2022-07-26T18:00:19.699Z,100599.41
2022-07-26T18:02:48.100Z,100606.13
2022-07-26T18:05:16.878Z,100615.63
2022-07-26T18:07:44.526Z,100603.06
2022-07-26T18:10:12.337Z,100605.28
2022-07-26T18:12:39.956Z,100606.72
2022-07-26T18:15:08.320Z,100608.31
2022-07-26T18:17:38.523Z,100608.00
2022-07-26T18:20:12.746Z,100625.03
2022-07-26T18:22:40.760Z,100613.72
2022-07-26T18:25:08.793Z,100621.09
2022-07-26T18:27:36.424Z,100629.94
2022-07-26T18:30:05.679Z,100620.88
2022-07-26T18:32:34.428Z,100631.19
2022-07-26T18:35:01.985Z,100627.78
2022-07-26T18:37:30.534Z,100631.31
2022-07-26T18:39:59.912Z,100621.16
2022-07-26T18:42:27.594Z,100636.44
2022-07-26T18:44:55.159Z,100635.44
2022-07-26T18:47:23.238Z,100635.69
2022-07-26T18:49:51.403Z,100641.47
2022-07-26T18:52:28.640Z,100646.78
2022-07-26T18:55:02.719Z,100648.00
2022-07-26T18:57:35.088Z,100642.69
2022-07-26T19:00:05.812Z,100646.03
2022-07-26T19:02:33.505Z,100644.72
2022-07-26T19:05:01.176Z,100644.03
2022-07-26T19:07:28.908Z,100631.59
2022-07-26T19:09:58.565Z,100632.69
2022-07-26T19:12:27.808Z,100631.72
2022-07-26T19:15:00.223Z,100628.59
2022-07-26T19:17:30.968Z,100643.19
2022-07-26T19:20:00.949Z,100644.22
2022-07-26T19:22:30.607Z,100637.56
2022-07-26T19:24:58.319Z,100633.03
2022-07-26T19:27:26.368Z,100639.31
2022-07-26T19:29:54.933Z,100633.66
2022-07-26T19:32:22.485Z,100638.13
2022-07-26T19:34:50.480Z,100625.19
2022-07-26T19:37:22.917Z,100624.19
2022-07-26T19:39:52.460Z,100628.53
2022-07-26T19:42:20.329Z,100620.47
2022-07-26T19:44:48.461Z,100623.19
2022-07-26T19:47:16.029Z,100630.06
2022-07-26T19:49:43.862Z,100634.69
2022-07-26T19:52:11.997Z,100629.06
2022-07-26T19:54:40.586Z,100624.41
2022-07-26T19:57:08.731Z,100627.41
2022-07-26T19:59:36.374Z,100627.22
2022-07-26T20:02:04.222Z,100619.66
2022-07-26T20:04:31.985Z,100631.47
2022-07-26T20:07:00.964Z,100634.31
2022-07-26T20:09:29.992Z,100631.47
2022-07-26T20:11:58.317Z,100629.16
2022-07-26T20:14:26.478Z,100628.03
2022-07-26T20:16:57.126Z,100632.03
2022-07-26T20:19:27.039Z,100632.72
2022-07-26T20:21:55.019Z,100627.97
2022-07-26T20:24:22.710Z,100631.69
2022-07-26T20:26:50.355Z,100642.22
2022-07-26T20:29:17.930Z,100621.22
2022-07-26T20:31:45.946Z,100627.69
2022-07-26T20:34:13.622Z,100620.63
2022-07-26T20:36:41.399Z,100631.50
2022-07-26T20:39:09.691Z,100626.88
2022-07-26T20:41:37.652Z,100628.28
2022-07-26T20:44:07.038Z,100617.56
2022-07-26T20:46:40.179Z,100620.34
2022-07-26T20:49:09.442Z,100621.03
2022-07-26T20:51:37.784Z,100634.25
2022-07-26T20:54:05.499Z,100636.47
2022-07-26T20:56:33.407Z,100638.66
2022-07-26T20:59:02.503Z,100640.00
2022-07-26T21:01:31.636Z,100648.16
2022-07-26T21:03:59.857Z,100637.06
2022-07-26T21:06:29.506Z,100646.78
2022-07-26T21:08:58.046Z,100652.41
2022-07-26T21:11:26.060Z,100646.38
2022-07-26T21:14:49.667Z,100640.94
2022-07-26T21:18:31.407Z,100638.22
2022-07-26T21:22:13.342Z,100637.94
2022-07-26T21:26:00.389Z,100623.22
2022-07-26T21:29:42.567Z,100627.75
2022-07-26T21:33:26.271Z,100626.66
2022-07-26T21:37:08.514Z,100628.28
2022-07-26T21:40:50.430Z,100632.09
2022-07-26T21:44:32.309Z,100623.94
2022-07-26T21:48:14.390Z,100627.56
2022-07-26T21:52:00.134Z,100626.22
2022-07-26T21:55:41.695Z,100628.94
2022-07-26T21:59:23.340Z,100624.63
2022-07-26T22:03:05.237Z,100632.25
2022-07-26T22:06:47.539Z,100625.59
2022-07-26T22:10:29.491Z,100621.53
2022-07-26T22:14:11.468Z,100624.66
2022-07-26T22:17:53.409Z,100622.91
2022-07-26T22:20:39.917Z,100626.59
2022-07-26T22:23:12.776Z,100615.56
2022-07-26T22:25:40.576Z,100625.06
2022-07-26T22:28:08.956Z,100619.91
2022-07-26T22:30:36.938Z,100621.59
2022-07-26T22:33:07.844Z,100625.78
2022-07-26T22:35:36.800Z,100619.59
2022-07-26T22:38:07.059Z,100624.28
2022-07-26T22:40:34.814Z,100623.03
2022-07-26T22:43:02.761Z,100630.66
2022-07-26T22:45:31.071Z,100617.94
2022-07-26T22:47:58.674Z,100617.75
2022-07-26T22:50:26.208Z,100611.78
2022-07-26T22:52:53.835Z,100611.16
2022-07-26T22:55:21.838Z,100616.84
2022-07-26T22:57:49.577Z,100616.03
2022-07-26T23:00:19.138Z,100623.63
2022-07-26T23:02:48.324Z,100623.63
2022-07-26T23:05:16.615Z,100622.81
2022-07-26T23:07:47.181Z,100624.13
2022-07-26T23:10:17.060Z,100630.16
2022-07-26T23:12:45.449Z,100627.19
2022-07-26T23:15:13.539Z,100627.47
2022-07-26T23:17:41.365Z,100621.84
2022-07-26T23:20:10.405Z,100620.50
2022-07-26T23:22:38.781Z,100616.72
2022-07-26T23:25:06.617Z,100631.13
2022-07-26T23:27:34.130Z,100630.38
2022-07-26T23:30:01.671Z,100631.50
2022-07-26T23:32:30.890Z,100637.47
2022-07-26T23:34:58.307Z,100639.38
2022-07-26T23:37:25.760Z,100640.47
2022-07-26T23:39:53.251Z,100642.59
2022-07-26T23:42:20.755Z,100628.50
2022-07-26T23:44:48.240Z,100629.56
2022-07-26T23:47:15.722Z,100599.38
2022-07-26T23:49:43.209Z,100623.53
2022-07-26T23:52:10.657Z,100623.31
2022-07-26T23:54:38.045Z,100626.31
2022-07-26T23:57:05.520Z,100623.06
2022-07-26T23:59:32.933Z,100626.38
